Oakdale, Nebraska
Current Conditions -  °F | °C
As of 5:55 AM on Monday 24 Nov 2014 (Local Time) from KBVN Reporting Station
Overcast Overcast  
Wind Chill: 14°   Ceiling: 2400
Heat Index: 28°   Visibility: 10mi
Dew Point: 18°   Wind: 23mph
Humidity: 65%   Direction: 320°NW
Pressure: 29.64"   Gusts: 32mph
Location:  42.07°N, 97.97°W
Report Text: KBVN 241155Z AUTO 32020G28KT 10SM OVC024 M02/M08 A2964 RMK AO2 70004 T10231080 11005 21023
Loading
Personal Weather Stations






























Interactive Weather Map New forecast layout! Learn more

10-Day Weather Forecast

Advertisements
Track Severe Weather on mobile